createdAt,value
2022-12-05T00:00:35.796Z,101056.69
2022-12-05T00:02:07.892Z,101048.94
2022-12-05T00:03:40.181Z,101054.13
2022-12-05T00:05:12.615Z,101053.28
2022-12-05T00:06:44.973Z,101060.13
2022-12-05T00:08:17.248Z,101059.31
2022-12-05T00:09:49.380Z,101064.44
2022-12-05T00:11:24.961Z,101063.63
2022-12-05T00:12:57.046Z,101066.16
2022-12-05T00:14:29.002Z,101067.88
2022-12-05T00:16:00.977Z,101067.88
2022-12-05T00:17:33.354Z,101068.78
2022-12-05T00:19:07.285Z,101069.69
2022-12-05T00:20:46.241Z,101079.13
2022-12-05T00:22:18.256Z,101073.94
2022-12-05T00:23:51.648Z,101076.56
2022-12-05T00:25:23.674Z,101073.09
2022-12-05T00:26:55.805Z,101077.34
2022-12-05T00:28:27.808Z,101073.03
2022-12-05T00:30:00.217Z,101078.19
2022-12-05T00:31:32.613Z,101076.44
2022-12-05T00:33:04.738Z,101085.03
2022-12-05T00:34:36.741Z,101091.03
2022-12-05T00:36:14.307Z,101080.81
2022-12-05T00:37:46.330Z,101076.47
2022-12-05T00:39:18.395Z,101085.03
2022-12-05T00:40:50.467Z,101079.09
2022-12-05T00:42:22.479Z,101080.75
2022-12-05T00:43:55.002Z,101081.56
2022-12-05T00:45:27.102Z,101077.28
2022-12-05T00:46:59.096Z,101073.81
2022-12-05T00:48:31.763Z,101067.00
2022-12-05T00:50:05.458Z,101071.28
2022-12-05T00:51:42.372Z,101070.47
2022-12-05T00:53:14.376Z,101066.97
2022-12-05T00:54:46.406Z,101078.09
2022-12-05T00:56:22.622Z,101073.03
2022-12-05T00:57:54.607Z,101069.53
2022-12-05T00:59:26.662Z,101068.66
2022-12-05T01:00:59.020Z,101063.41
2022-12-05T01:02:31.122Z,101068.69
2022-12-05T01:04:06.453Z,101072.19
2022-12-05T01:05:38.552Z,101070.44
2022-12-05T01:07:10.593Z,101066.16
2022-12-05T01:08:43.190Z,101065.34
2022-12-05T01:10:15.248Z,101066.16
2022-12-05T01:11:48.173Z,101063.53
2022-12-05T01:13:20.146Z,101062.69
2022-12-05T01:14:52.220Z,101069.47
2022-12-05T01:16:28.197Z,101067.00
2022-12-05T01:18:00.359Z,101074.63
2022-12-05T01:19:33.290Z,101077.19
2022-12-05T01:21:06.684Z,101078.03
2022-12-05T01:22:38.845Z,101074.63
2022-12-05T01:24:12.110Z,101075.53
2022-12-05T01:25:45.872Z,101077.28
2022-12-05T01:27:17.839Z,101076.38
2022-12-05T01:28:50.809Z,101074.66
2022-12-05T01:31:55.272Z,101056.66
2022-12-05T01:33:27.378Z,101059.22
2022-12-05T01:34:59.347Z,101065.22
2022-12-05T01:36:31.893Z,101072.97
2022-12-05T01:38:03.952Z,101059.22
2022-12-05T01:39:35.950Z,101057.50
2022-12-05T01:41:11.418Z,101054.94
2022-12-05T01:42:43.461Z,101048.91
2022-12-05T01:44:15.571Z,101042.91
2022-12-05T01:45:47.718Z,101047.19
2022-12-05T01:47:19.931Z,101048.03
2022-12-05T01:48:53.547Z,101036.94
2022-12-05T01:50:25.366Z,101043.13
2022-12-05T01:52:02.295Z,101038.81
2022-12-05T01:53:34.292Z,101036.19
2022-12-05T01:55:14.470Z,101030.31
2022-12-05T01:56:49.630Z,101034.53
2022-12-05T01:58:22.264Z,101028.50
2022-12-05T02:01:25.979Z,101026.75
2022-12-05T02:03:00.554Z,101025.13
2022-12-05T02:04:37.802Z,101026.88
2022-12-05T02:06:09.920Z,101027.72
2022-12-05T02:07:43.818Z,101020.88
2022-12-05T02:09:15.822Z,101028.56
2022-12-05T02:10:53.469Z,101025.22
2022-12-05T02:12:25.977Z,101019.19
2022-12-05T02:14:11.011Z,101017.50
2022-12-05T02:15:57.102Z,101011.47
2022-12-05T02:17:44.386Z,101017.47
2022-12-05T02:19:49.016Z,101003.81
2022-12-05T02:21:49.883Z,101018.31
2022-12-05T02:23:49.520Z,101006.44
2022-12-05T02:25:27.151Z,101020.84
2022-12-05T02:27:20.791Z,101009.91
2022-12-05T02:29:01.604Z,101021.84
2022-12-05T02:30:51.879Z,101020.09
2022-12-05T02:32:39.145Z,101023.56
2022-12-05T02:34:34.670Z,101023.50
2022-12-05T02:36:25.917Z,101019.25
2022-12-05T02:38:22.880Z,101025.22
2022-12-05T02:40:14.961Z,101027.75
2022-12-05T02:42:04.194Z,101019.94
2022-12-05T02:44:04.101Z,101030.34
2022-12-05T02:45:38.107Z,101025.16
2022-12-05T02:47:10.572Z,101025.06
2022-12-05T02:48:43.261Z,101026.84
2022-12-05T02:50:18.349Z,101026.84
2022-12-05T02:51:53.880Z,101032.88
2022-12-05T02:53:26.700Z,101030.31
2022-12-05T02:54:58.964Z,101025.97
2022-12-05T02:56:33.040Z,101029.41
2022-12-05T02:58:09.643Z,101037.09
2022-12-05T02:59:44.212Z,101028.50
2022-12-05T03:01:16.449Z,101026.75
2022-12-05T03:02:49.335Z,101033.63
2022-12-05T03:04:23.232Z,101025.88
2022-12-05T03:06:05.901Z,101025.94
2022-12-05T03:07:38.633Z,101027.66
2022-12-05T03:09:14.888Z,101015.72
2022-12-05T03:10:47.584Z,101028.50
2022-12-05T03:12:29.931Z,101025.94
2022-12-05T03:14:02.830Z,101026.69
2022-12-05T03:15:39.973Z,101024.19
2022-12-05T03:17:22.251Z,101024.13
2022-12-05T03:19:00.650Z,101024.19
2022-12-05T03:20:35.830Z,101021.50
2022-12-05T03:22:11.373Z,101031.81
2022-12-05T03:23:47.972Z,101022.41
2022-12-05T03:25:22.704Z,101023.22
2022-12-05T03:27:13.321Z,101021.41
2022-12-05T03:29:03.374Z,101016.44
2022-12-05T03:30:39.156Z,101013.75
2022-12-05T03:32:20.014Z,101012.94
2022-12-05T03:33:57.212Z,101012.03
2022-12-05T03:35:29.224Z,101016.28
2022-12-05T03:37:07.620Z,101014.59
2022-12-05T03:38:55.731Z,101015.53
2022-12-05T03:40:55.485Z,101013.84
2022-12-05T03:42:32.868Z,101021.56
2022-12-05T03:44:10.067Z,101018.09
2022-12-05T03:45:51.523Z,101019.81
2022-12-05T03:47:44.804Z,101020.59
2022-12-05T03:49:33.520Z,101018.03
2022-12-05T03:51:08.178Z,101024.03
2022-12-05T03:53:17.613Z,101023.16
2022-12-05T03:54:46.348Z,101023.22
2022-12-05T03:56:27.317Z,101028.34
2022-12-05T03:59:40.297Z,101035.19
2022-12-05T04:01:14.351Z,101022.38
2022-12-05T04:02:56.441Z,101031.00
2022-12-05T04:04:35.491Z,101027.53
2022-12-05T04:06:18.634Z,101032.72
2022-12-05T04:07:54.867Z,101026.75
2022-12-05T04:09:32.930Z,101036.22
2022-12-05T04:11:12.718Z,101028.50
2022-12-05T04:12:46.050Z,101032.72
2022-12-05T04:14:22.807Z,101034.50
2022-12-05T04:16:20.543Z,101034.50
2022-12-05T04:17:59.168Z,101030.22
2022-12-05T04:20:15.883Z,101027.59
2022-12-05T04:21:51.737Z,101028.41
2022-12-05T04:23:24.115Z,101037.81
2022-12-05T04:25:16.695Z,101035.25
2022-12-05T04:26:56.101Z,101037.81
2022-12-05T04:28:30.773Z,101034.41
2022-12-05T04:30:09.810Z,101036.94
2022-12-05T04:33:20.695Z,101032.63
2022-12-05T04:34:56.899Z,101040.38
2022-12-05T04:36:43.284Z,101034.41
2022-12-05T04:38:27.351Z,101033.53
2022-12-05T04:40:01.111Z,101031.91
2022-12-05T04:41:36.592Z,101032.69
2022-12-05T04:43:10.228Z,101041.25
2022-12-05T04:44:46.594Z,101035.34
2022-12-05T04:46:20.531Z,101037.88
2022-12-05T04:47:57.832Z,101040.47
2022-12-05T04:49:31.107Z,101046.47
2022-12-05T04:51:07.819Z,101041.28
2022-12-05T04:52:40.080Z,101042.16
2022-12-05T04:54:17.571Z,101033.69
2022-12-05T04:55:51.582Z,101029.34
2022-12-05T04:57:30.314Z,101034.50
2022-12-05T04:59:02.391Z,101034.38
2022-12-05T05:00:38.936Z,101027.53
2022-12-05T05:02:13.665Z,101034.44
2022-12-05T05:03:55.727Z,101037.06
2022-12-05T05:05:28.279Z,101033.53
2022-12-05T05:07:00.416Z,101039.56
2022-12-05T05:08:32.387Z,101041.28
2022-12-05T05:10:04.686Z,101041.31
2022-12-05T05:11:37.216Z,101037.06
2022-12-05T05:13:09.261Z,101039.63
2022-12-05T05:14:41.546Z,101043.91
2022-12-05T05:16:18.472Z,101040.56
2022-12-05T05:17:50.546Z,101047.38
2022-12-05T05:19:22.689Z,101047.38
2022-12-05T05:20:54.681Z,101040.53
2022-12-05T05:22:27.389Z,101050.84
2022-12-05T05:23:59.804Z,101042.22
2022-12-05T05:25:31.765Z,101044.81
2022-12-05T05:27:03.803Z,101050.84
2022-12-05T05:28:35.853Z,101046.56
2022-12-05T05:30:08.471Z,101055.97
2022-12-05T05:31:41.078Z,101049.13
2022-12-05T05:33:13.299Z,101050.84
2022-12-05T05:34:45.243Z,101049.94
2022-12-05T05:36:18.165Z,101062.84
2022-12-05T05:37:50.228Z,101055.13
2022-12-05T05:39:22.246Z,101061.97
2022-12-05T05:40:54.181Z,101061.13
2022-12-05T05:42:26.207Z,101056.88
2022-12-05T05:43:58.386Z,101062.88
2022-12-05T05:45:30.370Z,101061.97
2022-12-05T05:47:02.484Z,101060.25
2022-12-05T05:48:35.783Z,101067.09
2022-12-05T05:50:08.963Z,101065.41
2022-12-05T05:51:40.904Z,101055.88
2022-12-05T05:53:13.002Z,101061.94
2022-12-05T05:54:45.020Z,101067.03
2022-12-05T05:56:21.843Z,101060.22
2022-12-05T05:57:54.297Z,101066.19
2022-12-05T05:59:26.354Z,101072.19
2022-12-05T06:01:09.708Z,101068.00
2022-12-05T06:02:41.813Z,101065.34
2022-12-05T06:04:14.042Z,101071.38
2022-12-05T06:05:53.109Z,101070.50
2022-12-05T06:07:25.252Z,101075.66
2022-12-05T06:08:57.366Z,101066.31
2022-12-05T06:10:30.486Z,101071.44
2022-12-05T06:12:03.477Z,101075.81
2022-12-05T06:13:35.615Z,101080.09
2022-12-05T06:15:08.343Z,101075.81
2022-12-05T06:16:40.390Z,101082.63
2022-12-05T06:18:12.432Z,101079.13
2022-12-05T06:19:44.450Z,101082.66
2022-12-05T06:21:16.806Z,101089.50
2022-12-05T06:22:48.856Z,101086.13
2022-12-05T06:24:21.714Z,101095.53
2022-12-05T06:25:55.626Z,101098.16
2022-12-05T06:27:32.651Z,101097.31
2022-12-05T06:29:04.620Z,101098.13
2022-12-05T06:30:38.843Z,101098.22
2022-12-05T06:32:10.880Z,101093.88
2022-12-05T06:33:43.617Z,101100.78
2022-12-05T06:35:16.120Z,101097.31
2022-12-05T06:36:48.176Z,101096.50
2022-12-05T06:38:20.295Z,101107.59
2022-12-05T06:39:53.381Z,101106.72
2022-12-05T06:41:26.175Z,101100.75
2022-12-05T06:42:58.179Z,101102.41
2022-12-05T06:44:30.344Z,101107.59
2022-12-05T06:46:07.024Z,101103.38
2022-12-05T06:47:39.202Z,101103.31
2022-12-05T06:49:11.355Z,101106.72
2022-12-05T06:50:51.597Z,101109.41
2022-12-05T06:52:23.676Z,101117.97
2022-12-05T06:53:56.718Z,101114.53
2022-12-05T06:55:28.768Z,101117.16
2022-12-05T06:57:00.749Z,101114.53
2022-12-05T06:58:32.893Z,101112.88
2022-12-05T07:00:35.546Z,101119.81
2022-12-05T07:02:08.771Z,101115.56
2022-12-05T07:03:41.304Z,101116.47
2022-12-05T07:05:13.474Z,101110.44
2022-12-05T07:06:50.459Z,101113.06
2022-12-05T07:08:23.345Z,101110.44
2022-12-05T07:09:55.433Z,101109.59
2022-12-05T07:11:27.552Z,101106.16
2022-12-05T07:12:59.506Z,101114.78
2022-12-05T07:14:47.027Z,101103.66
2022-12-05T07:16:20.455Z,101103.69
2022-12-05T07:17:52.515Z,101104.56
2022-12-05T07:19:24.507Z,101108.88
2022-12-05T07:21:11.677Z,101101.22
2022-12-05T07:51:26.569Z,101122.03
2022-12-05T07:52:58.635Z,101120.28
2022-12-05T07:54:30.749Z,101111.63
2022-12-05T07:56:05.342Z,101111.72
2022-12-05T07:57:37.420Z,101112.59
2022-12-05T07:59:09.562Z,101118.66
2022-12-05T08:00:41.550Z,101123.81
2022-12-05T08:02:13.669Z,101110.06
2022-12-05T08:03:46.385Z,101117.91
2022-12-05T08:05:18.372Z,101120.47
2022-12-05T08:06:50.417Z,101126.47
2022-12-05T08:08:22.731Z,101125.63
2022-12-05T08:09:54.853Z,101130.75
2022-12-05T08:11:30.450Z,101122.28
2022-12-05T08:13:02.552Z,101122.19
2022-12-05T08:14:34.571Z,101123.09
2022-12-05T08:16:10.284Z,101119.72
2022-12-05T08:17:42.470Z,101123.19
2022-12-05T08:19:15.699Z,101128.34
2022-12-05T08:20:47.746Z,101112.06
2022-12-05T08:22:19.729Z,101112.91
2022-12-05T08:23:52.487Z,101112.13
2022-12-05T08:26:56.336Z,101102.84
2022-12-05T08:28:28.410Z,101097.72
2022-12-05T08:30:00.714Z,101096.91
2022-12-05T08:31:35.132Z,101102.13
2022-12-05T08:33:07.122Z,101097.88
2022-12-05T08:34:39.106Z,101096.00
2022-12-05T08:36:13.799Z,101099.56
2022-12-05T08:37:45.856Z,101092.69
2022-12-05T08:39:19.639Z,101096.22
2022-12-05T08:40:51.690Z,101090.16
2022-12-05T08:42:23.705Z,101094.38
2022-12-05T08:44:01.711Z,101096.16
2022-12-05T08:45:33.762Z,101094.41
2022-12-05T08:47:05.861Z,101098.59
2022-12-05T08:48:38.129Z,101098.66
2022-12-05T08:50:10.255Z,101097.03
2022-12-05T08:51:42.772Z,101093.66
2022-12-05T08:53:15.346Z,101106.44
2022-12-05T08:54:47.812Z,101090.09
2022-12-05T08:56:26.359Z,101091.84
2022-12-05T08:57:58.954Z,101098.78
2022-12-05T08:59:31.519Z,101089.41
2022-12-05T09:01:08.812Z,101090.34
2022-12-05T09:02:40.815Z,101091.19
2022-12-05T09:04:13.462Z,101089.50
2022-12-05T09:05:45.431Z,101086.09
2022-12-05T09:07:17.514Z,101080.16
2022-12-05T09:08:50.521Z,101081.09
2022-12-05T09:10:22.951Z,101075.94
2022-12-05T09:11:54.943Z,101083.66
2022-12-05T09:13:27.004Z,101074.19
2022-12-05T09:14:59.353Z,101083.56
2022-12-05T09:16:37.921Z,101082.81
2022-12-05T09:18:10.882Z,101081.00
2022-12-05T09:19:43.001Z,101072.44
2022-12-05T09:21:23.176Z,101073.22
2022-12-05T09:22:55.169Z,101072.25
2022-12-05T09:24:27.677Z,101075.72
2022-12-05T09:26:02.866Z,101076.59
2022-12-05T09:27:34.904Z,101081.66
2022-12-05T09:29:08.959Z,101083.28
2022-12-05T09:30:46.399Z,101084.81
2022-12-05T09:32:18.439Z,101080.53
2022-12-05T09:33:51.526Z,101074.53
2022-12-05T09:35:23.511Z,101078.81
2022-12-05T09:37:10.199Z,101077.81
2022-12-05T09:38:42.813Z,101085.53
2022-12-05T09:40:19.393Z,101078.91
2022-12-05T09:42:08.499Z,101080.66
2022-12-05T09:43:47.723Z,101081.59
2022-12-05T09:45:24.679Z,101079.94
2022-12-05T09:47:21.685Z,101072.94
2022-12-05T09:48:54.091Z,101067.81
2022-12-05T09:50:31.937Z,101067.00
2022-12-05T09:52:05.207Z,101066.13
2022-12-05T09:53:41.902Z,101068.75
2022-12-05T09:55:19.338Z,101058.44
2022-12-05T09:56:52.263Z,101061.84
2022-12-05T09:58:30.843Z,101052.56
2022-12-05T10:01:46.856Z,101056.03
2022-12-05T10:03:27.218Z,101049.22
2022-12-05T10:05:22.741Z,101041.41
2022-12-05T10:07:02.585Z,101045.84
2022-12-05T10:08:51.689Z,101044.19
2022-12-05T10:10:23.817Z,101040.75
2022-12-05T10:12:16.344Z,101040.88
2022-12-05T10:14:13.892Z,101031.53
2022-12-05T10:15:57.645Z,101037.53
2022-12-05T10:17:37.999Z,101044.47
2022-12-05T10:19:40.530Z,101040.22
2022-12-05T10:21:15.165Z,101035.94
2022-12-05T10:22:50.134Z,101041.91
2022-12-05T10:24:32.609Z,101043.69
2022-12-05T10:26:09.191Z,101032.50
2022-12-05T10:27:52.137Z,101033.44
2022-12-05T10:29:44.176Z,101029.16
2022-12-05T10:31:20.116Z,101040.28
2022-12-05T10:32:59.059Z,101027.44
2022-12-05T10:34:40.351Z,101030.81
2022-12-05T10:36:14.276Z,101034.28
2022-12-05T10:37:58.994Z,101029.22
2022-12-05T10:39:31.023Z,101024.00
2022-12-05T10:41:08.633Z,101025.84
2022-12-05T10:42:41.878Z,101024.06
2022-12-05T10:44:13.952Z,101020.66
2022-12-05T10:45:48.372Z,101021.63
2022-12-05T10:47:20.435Z,101022.41
2022-12-05T10:48:52.378Z,101023.34
2022-12-05T10:50:33.468Z,101031.16
2022-12-05T10:52:06.018Z,101020.84
2022-12-05T10:53:44.099Z,101022.63
2022-12-05T10:55:18.702Z,101023.47
2022-12-05T10:56:52.975Z,101019.25
2022-12-05T10:58:27.520Z,101014.97
2022-12-05T11:00:11.416Z,101018.50
2022-12-05T11:01:48.099Z,101016.72
2022-12-05T11:03:32.943Z,101019.38
2022-12-05T11:05:05.357Z,101022.81
2022-12-05T11:06:37.701Z,101021.94
2022-12-05T11:08:35.647Z,101017.78
2022-12-05T11:10:36.121Z,101009.28
2022-12-05T11:12:39.051Z,101015.31
2022-12-05T11:14:25.929Z,101007.63
2022-12-05T11:15:58.061Z,101009.25
2022-12-05T11:17:40.698Z,100998.81
2022-12-05T11:19:22.036Z,100999.47
2022-12-05T11:20:54.244Z,101006.28
2022-12-05T11:22:34.461Z,100998.59
2022-12-05T11:24:25.335Z,100999.28
2022-12-05T11:25:58.655Z,101003.53
2022-12-05T11:27:32.650Z,101005.22
2022-12-05T11:29:29.326Z,100999.19
2022-12-05T11:31:22.966Z,100995.81
2022-12-05T11:33:20.129Z,100998.47
2022-12-05T11:35:13.587Z,100994.03
2022-12-05T11:36:51.044Z,100988.00
2022-12-05T11:38:27.536Z,100983.81
2022-12-05T11:40:01.224Z,100983.53
2022-12-05T11:42:05.778Z,100989.59
2022-12-05T11:44:22.334Z,100985.97
2022-12-05T11:46:24.974Z,100976.53
2022-12-05T11:47:58.503Z,100978.03
2022-12-05T11:49:55.816Z,100975.56
2022-12-05T11:51:40.939Z,100973.03
2022-12-05T11:53:33.749Z,100971.25
2022-12-05T11:55:26.516Z,100973.13
2022-12-05T11:57:01.441Z,100979.00
2022-12-05T12:00:43.459Z,100967.19
2022-12-05T12:02:45.462Z,100973.34
2022-12-05T12:04:39.087Z,100969.03
2022-12-05T12:06:23.061Z,100962.19
2022-12-05T12:08:02.427Z,100955.31
2022-12-05T12:09:53.049Z,100953.69
2022-12-05T12:11:33.970Z,100949.44
2022-12-05T12:13:32.376Z,100952.19
2022-12-05T12:15:27.809Z,100948.78
2022-12-05T12:17:24.084Z,100940.28
2022-12-05T12:19:23.783Z,100937.72
2022-12-05T12:21:14.552Z,100927.41
2022-12-05T12:23:03.097Z,100935.16
2022-12-05T12:25:00.074Z,100926.59
2022-12-05T12:26:37.923Z,100926.72
2022-12-05T12:28:34.122Z,100927.66
2022-12-05T12:30:37.692Z,100921.59
2022-12-05T12:32:41.268Z,100916.50
2022-12-05T12:34:42.510Z,100917.44
2022-12-05T12:36:19.367Z,100914.09
2022-12-05T12:38:45.682Z,100912.44
2022-12-05T12:40:31.375Z,100911.56
2022-12-05T12:42:17.616Z,100903.88
2022-12-05T12:43:54.393Z,100911.53
2022-12-05T12:45:48.360Z,100897.88
2022-12-05T12:47:42.183Z,100904.72
2022-12-05T12:49:26.227Z,100900.16
2022-12-05T12:50:58.180Z,100894.13
2022-12-05T12:52:56.025Z,100898.31
2022-12-05T12:56:56.762Z,100909.41
2022-12-05T12:59:03.521Z,100904.25
2022-12-05T13:01:00.247Z,100907.72
2022-12-05T13:02:35.864Z,100903.38
2022-12-05T13:04:12.899Z,100908.63
2022-12-05T13:05:49.084Z,100910.19
2022-12-05T13:07:31.690Z,100912.78
2022-12-05T13:09:29.675Z,100912.69
2022-12-05T13:11:05.623Z,100911.00
2022-12-05T13:12:39.717Z,100912.72
2022-12-05T13:14:16.822Z,100906.72
2022-12-05T13:15:54.101Z,100907.63
2022-12-05T13:17:26.271Z,100908.22
2022-12-05T13:18:59.485Z,100905.56
2022-12-05T13:20:33.558Z,100911.63
2022-12-05T13:22:07.056Z,100902.13
2022-12-05T13:23:48.861Z,100909.03
2022-12-05T13:25:22.994Z,100912.47
2022-12-05T13:27:07.197Z,100903.06
2022-12-05T13:28:52.115Z,100908.31
2022-12-05T13:30:28.683Z,100897.13
2022-12-05T13:33:44.617Z,100886.69
2022-12-05T13:35:43.037Z,100900.41
2022-12-05T13:37:48.670Z,100897.88
2022-12-05T13:39:41.571Z,100902.09
2022-12-05T13:41:32.803Z,100897.81
2022-12-05T13:43:05.665Z,100897.75
2022-12-05T13:44:57.724Z,100896.13
2022-12-05T13:46:33.069Z,100895.16
2022-12-05T13:48:20.676Z,100891.72
2022-12-05T13:49:57.973Z,100891.75
2022-12-05T13:51:35.248Z,100888.34
2022-12-05T13:53:23.661Z,100896.19
2022-12-05T13:55:06.865Z,100883.31
2022-12-05T13:57:04.426Z,100892.72
2022-12-05T13:58:45.609Z,100889.31
2022-12-05T14:00:17.561Z,100888.44
2022-12-05T14:01:55.634Z,100887.50
2022-12-05T14:03:33.907Z,100891.00
2022-12-05T14:05:28.214Z,100888.47
2022-12-05T14:07:00.322Z,100892.72
2022-12-05T14:08:32.397Z,100893.56
2022-12-05T14:10:04.997Z,100900.44
2022-12-05T14:11:37.048Z,100893.50
2022-12-05T14:13:15.360Z,100903.88
2022-12-05T14:14:59.578Z,100894.44
2022-12-05T14:16:31.665Z,100897.03
2022-12-05T14:18:31.449Z,100897.88
2022-12-05T14:20:11.171Z,100901.13
2022-12-05T14:21:56.147Z,100896.97
2022-12-05T14:23:36.844Z,100898.66
2022-12-05T14:25:23.261Z,100893.59
2022-12-05T14:27:16.872Z,100898.69
2022-12-05T14:29:13.071Z,100891.72
2022-12-05T14:31:02.763Z,100903.75
2022-12-05T14:32:37.536Z,100894.25
2022-12-05T14:34:22.737Z,100906.34
2022-12-05T14:35:54.994Z,100899.38
2022-12-05T14:37:33.674Z,100899.47
2022-12-05T14:39:22.044Z,100900.41
2022-12-05T14:41:06.031Z,100899.47
2022-12-05T14:43:05.029Z,100897.88
2022-12-05T14:44:37.271Z,100898.69
2022-12-05T14:46:20.437Z,100900.44
2022-12-05T14:47:55.779Z,100900.47
2022-12-05T14:49:38.123Z,100898.75
2022-12-05T14:51:30.490Z,100898.78
2022-12-05T14:53:20.979Z,100897.97
2022-12-05T14:54:55.122Z,100900.50
2022-12-05T14:56:27.952Z,100902.19
2022-12-05T14:58:00.480Z,100899.66
2022-12-05T14:59:47.405Z,100907.44
2022-12-05T15:01:49.206Z,100898.81
2022-12-05T15:03:30.656Z,100901.41
2022-12-05T15:05:23.231Z,100897.13
2022-12-05T15:07:05.902Z,100899.72
2022-12-05T15:09:14.566Z,100900.53
2022-12-05T15:10:50.873Z,100901.44
2022-12-05T15:12:34.626Z,100895.47
2022-12-05T15:14:21.454Z,100898.03
2022-12-05T15:16:18.897Z,100898.91
2022-12-05T15:17:58.675Z,100892.88
2022-12-05T15:19:43.600Z,100887.75
2022-12-05T15:21:29.620Z,100888.63
2022-12-05T15:23:01.614Z,100889.44
2022-12-05T15:24:39.997Z,100890.31
2022-12-05T15:26:47.614Z,100886.00
2022-12-05T15:28:20.397Z,100894.50
2022-12-05T15:29:54.807Z,100886.78
2022-12-05T15:31:32.781Z,100885.06
2022-12-05T15:33:05.373Z,100887.59
2022-12-05T15:36:31.547Z,100881.66
2022-12-05T15:38:14.022Z,100885.94
2022-12-05T15:40:00.413Z,100879.13
2022-12-05T15:41:32.759Z,100885.06
2022-12-05T15:43:32.202Z,100887.75
2022-12-05T15:45:16.366Z,100880.88
2022-12-05T15:46:55.812Z,100882.53
2022-12-05T15:48:27.842Z,100884.22
2022-12-05T15:50:00.349Z,100875.59
2022-12-05T15:51:37.819Z,100884.19
2022-12-05T15:53:36.196Z,100877.25
2022-12-05T15:55:13.425Z,100871.25
2022-12-05T15:56:51.016Z,100867.81
2022-12-05T15:58:32.099Z,100874.69
2022-12-05T16:00:13.542Z,100874.69
2022-12-05T16:01:52.124Z,100872.09
2022-12-05T16:03:28.842Z,100865.25
2022-12-05T16:06:37.994Z,100865.94
2022-12-05T16:08:10.341Z,100857.38
2022-12-05T16:09:44.801Z,100862.47
2022-12-05T16:11:17.208Z,100864.22
2022-12-05T16:12:50.831Z,100858.19
2022-12-05T16:14:51.275Z,100865.16
2022-12-05T16:16:20.625Z,100868.59
2022-12-05T16:17:55.365Z,100869.38
2022-12-05T16:19:28.040Z,100863.34
2022-12-05T16:21:00.310Z,100868.50
2022-12-05T16:22:34.242Z,100860.66
2022-12-05T16:24:22.469Z,100858.03
2022-12-05T16:25:54.921Z,100852.78
2022-12-05T16:27:32.622Z,100844.13
2022-12-05T16:29:04.774Z,100848.34
2022-12-05T16:30:37.797Z,100843.28
2022-12-05T16:32:30.026Z,100853.66
2022-12-05T16:34:13.310Z,100858.03
2022-12-05T16:35:46.622Z,100858.00
2022-12-05T16:37:27.017Z,100860.66
2022-12-05T16:39:06.982Z,100860.66
2022-12-05T16:42:28.896Z,100859.88
2022-12-05T16:44:01.024Z,100862.34
2022-12-05T16:45:44.285Z,100864.13
2022-12-05T16:47:27.445Z,100862.41
2022-12-05T16:49:30.389Z,100865.91
2022-12-05T16:51:11.584Z,100861.66
2022-12-05T16:52:43.695Z,100871.00
2022-12-05T16:54:15.718Z,100866.72
2022-12-05T16:55:48.330Z,100865.91
2022-12-05T16:57:20.577Z,100870.22
2022-12-05T16:58:52.764Z,100868.50
2022-12-05T17:00:24.755Z,100875.41
2022-12-05T17:01:56.997Z,100875.44
2022-12-05T17:03:36.823Z,100865.19
2022-12-05T17:05:15.179Z,100871.25
2022-12-05T17:06:47.378Z,100870.31
2022-12-05T17:08:19.425Z,100872.94
2022-12-05T17:09:51.500Z,100876.41
2022-12-05T17:11:30.422Z,100872.19
2022-12-05T17:13:03.604Z,100869.56
2022-12-05T17:16:10.561Z,100856.63
2022-12-05T17:17:42.626Z,100862.69
2022-12-05T17:19:14.852Z,100866.09
2022-12-05T17:20:50.457Z,100857.59
2022-12-05T17:22:22.997Z,100855.03
2022-12-05T17:23:55.132Z,100863.59
2022-12-05T17:25:36.605Z,100862.81
2022-12-05T17:27:12.425Z,100864.56
2022-12-05T17:28:44.481Z,100869.63
2022-12-05T17:30:16.786Z,100869.63
2022-12-05T17:31:49.843Z,100870.50
2022-12-05T17:33:22.169Z,100862.81
2022-12-05T17:34:54.257Z,100857.66
2022-12-05T17:36:26.436Z,100858.50
2022-12-05T17:37:58.642Z,100861.94
2022-12-05T17:39:33.102Z,100856.81
2022-12-05T17:41:07.210Z,100851.66
2022-12-05T17:42:40.727Z,100854.28
2022-12-05T17:44:15.146Z,100854.31
2022-12-05T17:45:48.557Z,100853.41
2022-12-05T17:47:20.606Z,100852.56
2022-12-05T17:50:30.482Z,100849.13
2022-12-05T17:53:56.574Z,100855.19
2022-12-05T17:55:29.558Z,100860.34
2022-12-05T17:57:01.585Z,100860.34
2022-12-05T17:58:33.953Z,100856.06
2022-12-05T18:00:06.667Z,100856.00
2022-12-05T18:01:39.085Z,100856.81
2022-12-05T18:03:17.121Z,100856.03
2022-12-05T18:04:49.330Z,100852.53
2022-12-05T18:06:21.347Z,100855.09
2022-12-05T18:07:53.387Z,100856.00
2022-12-05T18:09:25.472Z,100853.41
2022-12-05T18:10:58.698Z,100857.69
2022-12-05T18:12:30.841Z,100858.56
2022-12-05T18:14:02.884Z,100849.91
2022-12-05T18:15:40.934Z,100855.09
2022-12-05T18:17:14.970Z,100858.53
2022-12-05T18:18:46.975Z,100862.81
2022-12-05T18:20:19.277Z,100866.22
2022-12-05T18:21:51.334Z,100869.63
2022-12-05T18:23:35.232Z,100848.09
2022-12-05T18:25:07.888Z,100867.06
2022-12-05T18:26:42.995Z,100862.81
2022-12-05T18:28:17.893Z,100858.53
2022-12-05T18:29:51.917Z,100860.25
2022-12-05T18:31:24.051Z,100861.09
2022-12-05T18:32:56.091Z,100861.06
2022-12-05T18:34:28.195Z,100861.91
2022-12-05T18:36:05.600Z,100862.00
2022-12-05T18:37:38.671Z,100858.50
2022-12-05T18:39:14.947Z,100857.66
2022-12-05T18:40:47.013Z,100867.91
2022-12-05T18:42:19.178Z,100865.34
2022-12-05T18:43:51.448Z,100860.25
2022-12-05T18:45:23.463Z,100857.66
2022-12-05T18:46:55.570Z,100864.53
2022-12-05T18:48:47.646Z,100861.13
2022-12-05T18:50:20.100Z,100859.38
2022-12-05T18:51:52.630Z,100870.53
2022-12-05T18:53:24.759Z,100867.13
2022-12-05T18:55:15.604Z,100866.28
2022-12-05T18:56:51.210Z,100867.16
2022-12-05T18:59:54.945Z,100856.00
2022-12-05T19:01:28.264Z,100863.75
2022-12-05T19:03:03.088Z,100866.31
2022-12-05T19:04:37.327Z,100860.28
2022-12-05T19:06:17.840Z,100855.19
2022-12-05T19:07:53.567Z,100861.16
2022-12-05T19:09:28.022Z,100864.59
2022-12-05T19:11:04.913Z,100855.19
2022-12-05T19:12:37.254Z,100853.41
2022-12-05T19:14:10.818Z,100850.06
2022-12-05T19:15:42.740Z,100849.25
2022-12-05T19:17:14.810Z,100861.16
2022-12-05T19:18:47.886Z,100853.41
2022-12-05T19:20:19.944Z,100860.28
2022-12-05T19:21:52.208Z,100859.44
2022-12-05T19:23:24.663Z,100850.84
2022-12-05T19:24:57.294Z,100846.53
2022-12-05T19:26:29.913Z,100851.69
2022-12-05T19:28:01.909Z,100856.84
2022-12-05T19:29:33.980Z,100845.66
2022-12-05T19:31:11.638Z,100849.16
2022-12-05T19:32:55.145Z,100823.28
2022-12-05T19:34:27.203Z,100838.81